Time;durP1;ratioP1;P1;durP2;ratioP2;P2;SDS_P1;SDS_P2;PMS_P1;PMS_P2;Temp;Humidity;BMP_temperature;BMP_pressure;BME280_temperature;BME280_humidity;BME280_pressure;Samples;Min_cycle;Max_cycle;Signal;HPM_P1;HPM_P2
2022/11/07 00:02:17;;;;;;;1.88;0.70;;;20.80;45.90;;;;;;5049464;28;20025;-50
2022/11/07 00:04:43;;;;;;;1.70;0.75;;;20.80;45.90;;;;;;5049134;28;20067;-52
2022/11/07 00:07:09;;;;;;;1.60;0.95;;;20.80;46.00;;;;;;5048102;28;20351;-51
2022/11/07 00:09:36;;;;;;;1.52;0.80;;;20.80;46.00;;;;;;5046649;28;20412;-51
2022/11/07 00:12:02;;;;;;;2.00;0.73;;;20.80;46.00;;;;;;5044948;28;20048;-51
2022/11/07 00:14:28;;;;;;;1.73;0.68;;;20.80;46.10;;;;;;5048712;28;20094;-52
2022/11/07 00:16:54;;;;;;;1.30;0.75;;;20.80;46.10;;;;;;5047801;28;20037;-55
2022/11/07 00:19:20;;;;;;;1.50;0.90;;;20.80;46.10;;;;;;5042345;28;20037;-47
2022/11/07 00:21:48;;;;;;;2.30;0.77;;;20.80;46.20;;;;;;5045800;28;20021;-50
2022/11/07 00:24:18;;;;;;;2.03;0.70;;;20.80;46.10;;;;;;5048983;28;20025;-49
2022/11/07 00:26:45;;;;;;;2.65;0.95;;;20.80;46.10;;;;;;5048344;28;20115;-56
2022/11/07 00:29:13;;;;;;;1.42;0.70;;;20.80;46.10;;;;;;5046628;28;20025;-51
2022/11/07 00:31:39;;;;;;;1.67;0.90;;;20.80;46.20;;;;;;5045575;28;20068;-48
2022/11/07 00:34:05;;;;;;;1.75;0.90;;;20.80;46.10;;;;;;5046254;28;20126;-49
2022/11/07 00:36:31;;;;;;;2.10;0.88;;;20.80;46.10;;;;;;5047184;28;20449;-49
2022/11/07 00:38:57;;;;;;;1.15;0.60;;;20.80;46.10;;;;;;5029166;28;20037;-55
2022/11/07 00:41:23;;;;;;;1.23;0.60;;;20.80;46.20;;;;;;5013906;28;20053;-54
2022/11/07 00:43:49;;;;;;;2.17;0.93;;;20.70;46.20;;;;;;5048926;28;20025;-53
2022/11/07 00:46:16;;;;;;;1.67;0.90;;;20.70;46.30;;;;;;5048856;28;20052;-55
2022/11/07 00:48:42;;;;;;;2.50;0.80;;;20.70;46.30;;;;;;5032405;28;20033;-53
2022/11/07 00:51:16;;;;;;;1.88;0.85;;;20.70;46.40;;;;;;5050041;28;20032;-50
2022/11/07 00:53:43;;;;;;;1.80;0.88;;;20.70;46.40;;;;;;5052093;28;20043;-54
2022/11/07 00:56:12;;;;;;;1.92;0.73;;;20.70;46.50;;;;;;5049758;28;20036;-50
2022/11/07 00:58:38;;;;;;;1.15;0.70;;;20.70;46.50;;;;;;5051847;28;20087;-53
2022/11/07 01:01:09;;;;;;;2.35;0.77;;;20.70;46.50;;;;;;5048273;28;20124;-52
2022/11/07 01:06:20;;;;;;;1.83;0.93;;;20.70;46.60;;;;;;5052092;28;20056;-50
2022/11/07 01:08:47;;;;;;;1.40;0.63;;;20.70;46.60;;;;;;5047915;28;20112;-52
2022/11/07 01:11:13;;;;;;;1.88;0.75;;;20.70;46.70;;;;;;5050879;28;20044;-51
2022/11/07 01:13:38;;;;;;;2.38;0.90;;;20.60;46.70;;;;;;5051346;28;20052;-53
2022/11/07 01:16:07;;;;;;;1.95;0.90;;;20.60;46.70;;;;;;5049791;28;20053;-53
2022/11/07 01:18:33;;;;;;;1.95;0.80;;;20.60;46.70;;;;;;5044908;28;20432;-50
2022/11/07 01:21:04;;;;;;;2.38;0.85;;;20.60;46.70;;;;;;5049456;28;20025;-49
2022/11/07 01:23:30;;;;;;;2.08;0.73;;;20.60;46.80;;;;;;5050395;28;20069;-54
2022/11/07 01:25:56;;;;;;;1.45;0.60;;;20.60;46.80;;;;;;5052515;28;20044;-51
2022/11/07 01:28:21;;;;;;;1.90;0.80;;;20.60;46.80;;;;;;5046502;28;20317;-53
2022/11/07 01:30:47;;;;;;;1.52;0.73;;;20.60;46.80;;;;;;5051727;28;20381;-55
2022/11/07 01:33:13;;;;;;;2.33;1.00;;;20.60;46.90;;;;;;5048076;28;20025;-50
2022/11/07 01:35:39;;;;;;;2.15;0.85;;;20.60;46.90;;;;;;5024254;28;20052;-53
2022/11/07 01:38:05;;;;;;;2.60;0.93;;;20.60;46.90;;;;;;5050844;28;20063;-53
2022/11/07 01:41:20;;;;;;;2.72;0.80;;;20.60;46.90;;;;;;5029359;28;20025;-51
2022/11/07 01:43:17;;;;;;;1.80;0.68;;;20.60;46.90;;;;;;5050022;28;20044;-53
2022/11/07 01:45:43;;;;;;;1.63;0.70;;;20.60;47.00;;;;;;5051301;28;20083;-55
2022/11/07 01:48:10;;;;;;;1.27;0.70;;;20.60;47.00;;;;;;5049473;28;20494;-49
2022/11/07 01:50:36;;;;;;;2.00;1.02;;;20.60;47.00;;;;;;5032797;28;20090;-52
2022/11/07 01:53:02;;;;;;;2.13;0.90;;;20.60;47.00;;;;;;5050906;28;20029;-54
2022/11/07 01:55:32;;;;;;;1.70;0.80;;;20.60;47.10;;;;;;5031659;28;20040;-50
2022/11/07 01:58:04;;;;;;;1.50;0.60;;;20.60;47.10;;;;;;5050046;28;20040;-53
2022/11/07 02:00:32;;;;;;;2.83;0.90;;;20.50;47.00;;;;;;5049595;28;20025;-54
2022/11/07 02:03:09;;;;;;;1.73;0.70;;;20.60;47.10;;;;;;5050987;28;20064;-53
2022/11/07 02:05:43;;;;;;;1.88;0.70;;;20.50;47.10;;;;;;5050665;28;20036;-54
2022/11/07 02:08:12;;;;;;;1.95;0.70;;;20.50;47.10;;;;;;5045267;28;20033;-53
2022/11/07 02:10:40;;;;;;;1.80;0.80;;;20.50;47.10;;;;;;5047865;28;20041;-52
2022/11/07 02:13:07;;;;;;;1.55;0.80;;;20.50;47.20;;;;;;5051068;28;20041;-53
2022/11/07 02:15:34;;;;;;;1.10;0.60;;;20.50;47.20;;;;;;5049113;28;20028;-54
2022/11/07 02:18:01;;;;;;;2.00;0.77;;;20.50;47.20;;;;;;5047286;28;20040;-55
2022/11/07 02:20:27;;;;;;;2.17;1.00;;;20.50;47.20;;;;;;5050487;28;20444;-53
2022/11/07 02:23:13;;;;;;;1.80;0.68;;;20.50;47.20;;;;;;5047535;28;20035;-54
2022/11/07 02:25:39;;;;;;;1.58;0.60;;;20.50;47.30;;;;;;5050892;28;21517;-51
2022/11/07 02:28:08;;;;;;;1.60;0.80;;;20.50;47.20;;;;;;5049657;28;20119;-54
2022/11/07 02:30:34;;;;;;;1.90;0.50;;;20.50;47.30;;;;;;5050831;28;20110;-50
2022/11/07 02:33:02;;;;;;;1.88;0.82;;;20.50;47.30;;;;;;5045749;28;20485;-52
2022/11/07 02:35:44;;;;;;;2.13;0.93;;;20.50;47.30;;;;;;5032488;28;20091;-55
2022/11/07 02:38:34;;;;;;;1.92;0.70;;;20.50;47.30;;;;;;5049154;28;20122;-54
2022/11/07 02:41:11;;;;;;;2.15;0.80;;;20.50;47.40;;;;;;5049222;28;20036;-54
2022/11/07 02:43:40;;;;;;;2.00;0.77;;;20.40;47.30;;;;;;5049816;28;20029;-56
2022/11/07 02:46:08;;;;;;;1.33;0.70;;;20.50;47.40;;;;;;5049990;28;20036;-54
2022/11/07 02:48:44;;;;;;;2.22;0.88;;;20.40;47.40;;;;;;5046855;28;20104;-54
2022/11/07 02:51:10;;;;;;;2.20;0.80;;;20.40;47.40;;;;;;5050803;28;20114;-56
2022/11/07 02:53:36;;;;;;;2.42;0.70;;;20.40;47.40;;;;;;5049573;28;20028;-52
2022/11/07 02:56:03;;;;;;;4.28;1.10;;;20.40;47.50;;;;;;5050538;28;20037;-54
2022/11/07 02:58:28;;;;;;;1.55;0.80;;;20.40;47.50;;;;;;5029306;28;20032;-52
2022/11/07 03:00:54;;;;;;;1.52;0.65;;;20.40;47.50;;;;;;5045688;28;20025;-51
2022/11/07 03:03:20;;;;;;;1.35;0.60;;;20.40;47.50;;;;;;5048835;28;20031;-52
2022/11/07 03:05:46;;;;;;;2.22;0.80;;;20.40;47.50;;;;;;5048118;28;20028;-55
2022/11/07 03:08:12;;;;;;;1.90;0.60;;;20.40;47.60;;;;;;5048721;28;20047;-51
2022/11/07 03:10:37;;;;;;;1.70;0.60;;;20.40;47.60;;;;;;5030568;28;20048;-52
2022/11/07 03:13:03;;;;;;;2.03;0.70;;;20.40;47.60;;;;;;5048834;28;20033;-55
2022/11/07 03:15:29;;;;;;;2.45;0.77;;;20.40;47.60;;;;;;5046591;28;20103;-51
2022/11/07 03:17:58;;;;;;;1.48;0.60;;;20.40;47.60;;;;;;5049246;28;20100;-50
2022/11/07 03:20:24;;;;;;;1.35;0.80;;;20.40;47.60;;;;;;5048751;28;20029;-52
2022/11/07 03:22:49;;;;;;;2.45;0.90;;;20.40;47.70;;;;;;5050076;28;20031;-53
2022/11/07 03:25:15;;;;;;;2.55;0.90;;;20.40;47.70;;;;;;5049384;28;20032;-55
2022/11/07 03:27:48;;;;;;;1.35;0.60;;;20.40;47.70;;;;;;5049132;28;20100;-55
2022/11/07 03:30:14;;;;;;;2.72;1.00;;;20.40;47.70;;;;;;5046728;28;20059;-52
2022/11/07 03:32:41;;;;;;;2.28;0.80;;;20.40;47.70;;;;;;5029357;28;20033;-53
2022/11/07 03:35:07;;;;;;;2.60;0.73;;;20.40;48.40;;;;;;5048677;28;20032;-51
2022/11/07 03:37:33;;;;;;;2.70;0.90;;;20.40;47.80;;;;;;5049842;28;20033;-51
2022/11/07 03:39:58;;;;;;;2.90;0.70;;;20.40;47.80;;;;;;5049123;28;20415;-55
2022/11/07 03:42:24;;;;;;;1.85;0.55;;;20.40;47.80;;;;;;5049630;28;20017;-52
2022/11/07 03:44:50;;;;;;;3.90;1.00;;;20.40;47.90;;;;;;5031133;28;20029;-50
2022/11/07 03:47:16;;;;;;;2.80;0.77;;;20.40;47.90;;;;;;5045210;28;20025;-51
2022/11/07 03:49:41;;;;;;;3.55;0.80;;;20.30;47.90;;;;;;5047519;28;20029;-53
2022/11/07 03:52:07;;;;;;;2.42;0.90;;;20.30;47.90;;;;;;5048657;28;20086;-52
2022/11/07 03:54:33;;;;;;;3.33;1.23;;;20.30;47.90;;;;;;5046718;28;20021;-51
2022/11/07 03:56:59;;;;;;;1.60;0.70;;;20.30;47.90;;;;;;5049320;28;20033;-52
2022/11/07 03:59:25;;;;;;;1.42;0.73;;;20.30;47.90;;;;;;5050344;28;20028;-53
2022/11/07 04:01:51;;;;;;;2.10;0.90;;;20.40;48.00;;;;;;5026679;28;20425;-51
2022/11/07 04:04:16;;;;;;;2.00;0.77;;;20.30;48.00;;;;;;5047991;28;20032;-52
2022/11/07 04:06:42;;;;;;;1.88;0.85;;;20.30;48.00;;;;;;5048340;28;20439;-52
2022/11/07 04:09:08;;;;;;;2.05;0.80;;;20.30;48.10;;;;;;5030748;28;20091;-54
2022/11/07 04:17:17;;;;;;;2.33;0.88;;;20.30;48.10;;;;;;5048118;28;20033;-52
2022/11/07 04:19:43;;;;;;;1.95;0.75;;;20.30;48.20;;;;;;5048943;28;20108;-53
2022/11/07 04:22:09;;;;;;;3.15;0.90;;;20.30;48.20;;;;;;5050770;28;20880;-54
2022/11/07 04:24:36;;;;;;;3.33;0.93;;;20.30;48.20;;;;;;5052899;28;20029;-51
2022/11/07 04:29:46;;;;;;;2.72;0.70;;;20.30;48.30;;;;;;5050851;28;20025;-51
2022/11/07 04:32:12;;;;;;;3.25;1.08;;;20.30;48.30;;;;;;5051504;28;20040;-51
2022/11/07 04:34:39;;;;;;;1.90;0.80;;;20.30;48.30;;;;;;5052038;28;20742;-54
2022/11/07 04:37:05;;;;;;;3.20;1.00;;;20.30;48.30;;;;;;5052674;28;20040;-54
2022/11/07 04:39:30;;;;;;;1.77;0.70;;;20.30;48.40;;;;;;5052360;28;20025;-56
2022/11/07 04:41:56;;;;;;;2.90;1.00;;;20.30;48.40;;;;;;5051338;28;20557;-56
2022/11/07 04:44:22;;;;;;;2.35;0.90;;;20.30;48.40;;;;;;5052568;28;20514;-57
2022/11/07 04:46:48;;;;;;;2.08;0.70;;;20.30;48.40;;;;;;5052053;28;20033;-56
2022/11/07 04:49:14;;;;;;;2.58;0.85;;;20.30;48.40;;;;;;5034343;28;20032;-54
2022/11/07 04:51:43;;;;;;;1.95;0.70;;;20.30;48.40;;;;;;5052261;28;20412;-54
2022/11/07 04:54:13;;;;;;;2.38;0.90;;;20.30;48.50;;;;;;5051135;28;20040;-51
2022/11/07 04:56:39;;;;;;;4.03;1.10;;;20.30;48.50;;;;;;5034892;28;20033;-55
2022/11/07 04:59:05;;;;;;;2.28;0.82;;;20.30;48.50;;;;;;5050048;28;20029;-56
2022/11/07 05:01:31;;;;;;;2.35;0.90;;;20.20;48.40;;;;;;5052059;28;20025;-56
2022/11/07 05:03:57;;;;;;;2.08;0.90;;;20.20;48.50;;;;;;5051569;28;20027;-51
2022/11/07 05:06:23;;;;;;;4.30;0.93;;;20.20;48.50;;;;;;5051325;28;20029;-55
2022/11/07 05:08:49;;;;;;;2.58;1.08;;;20.20;48.50;;;;;;5047474;28;20021;-52
2022/11/07 05:11:15;;;;;;;2.22;0.77;;;20.30;49.20;;;;;;5051248;28;20067;-55
2022/11/07 05:13:41;;;;;;;2.83;1.00;;;20.20;48.60;;;;;;5052108;28;20344;-56
2022/11/07 05:16:17;;;;;;;2.75;1.13;;;20.20;48.60;;;;;;5050393;28;20389;-53
2022/11/07 05:18:44;;;;;;;3.95;1.00;;;20.20;48.60;;;;;;5048899;28;20033;-54
2022/11/07 05:21:10;;;;;;;2.63;1.02;;;20.20;48.60;;;;;;5050106;28;20040;-52
2022/11/07 05:23:36;;;;;;;2.50;1.25;;;20.20;48.60;;;;;;5052293;28;20044;-56
2022/11/07 05:26:02;;;;;;;3.55;1.00;;;20.20;48.70;;;;;;5049143;28;20557;-55
2022/11/07 05:28:30;;;;;;;3.17;1.05;;;20.20;48.70;;;;;;5050350;28;20530;-55
2022/11/07 05:31:00;;;;;;;3.25;1.02;;;20.20;48.80;;;;;;5051725;28;20083;-51
2022/11/07 05:33:27;;;;;;;2.85;0.90;;;20.30;48.80;;;;;;5048983;28;20053;-54
2022/11/07 05:35:53;;;;;;;1.88;0.80;;;20.20;48.70;;;;;;5051381;28;20017;-55
2022/11/07 05:38:18;;;;;;;2.58;0.95;;;20.20;48.80;;;;;;5048968;28;20047;-57
2022/11/07 05:40:44;;;;;;;2.85;1.25;;;20.20;48.80;;;;;;5031825;28;20116;-52
2022/11/07 05:43:12;;;;;;;3.28;1.10;;;20.20;48.80;;;;;;5048839;28;20049;-55
2022/11/07 05:45:39;;;;;;;4.07;0.90;;;20.20;48.80;;;;;;5049164;28;20402;-50
2022/11/07 05:48:11;;;;;;;3.25;0.80;;;20.20;48.90;;;;;;5047070;28;20021;-52
2022/11/07 05:50:38;;;;;;;2.88;0.80;;;20.20;48.90;;;;;;5033095;28;20033;-51
2022/11/07 05:53:04;;;;;;;2.80;1.00;;;20.20;48.90;;;;;;5034894;28;20071;-48
2022/11/07 05:55:30;;;;;;;2.92;0.85;;;20.20;48.90;;;;;;5051900;28;20017;-50
2022/11/07 05:57:56;;;;;;;2.70;1.00;;;20.20;48.90;;;;;;5048334;28;20037;-50
2022/11/07 06:00:22;;;;;;;2.15;0.77;;;20.20;48.90;;;;;;5049512;28;20107;-53
2022/11/07 06:03:06;;;;;;;3.42;1.10;;;20.20;49.00;;;;;;5046957;28;20025;-52
2022/11/07 06:05:32;;;;;;;4.28;0.95;;;20.20;48.90;;;;;;5048518;28;20491;-56
2022/11/07 06:07:58;;;;;;;4.43;1.10;;;20.20;49.00;;;;;;5050119;28;20111;-53
2022/11/07 06:10:24;;;;;;;3.03;1.20;;;20.20;49.00;;;;;;5022475;28;20144;-52
2022/11/07 06:12:58;;;;;;;4.00;1.55;;;20.20;49.00;;;;;;5050241;28;20106;-54
2022/11/07 06:15:25;;;;;;;3.00;1.10;;;20.20;49.00;;;;;;5046168;28;20068;-52
2022/11/07 06:17:51;;;;;;;2.67;1.17;;;20.20;49.00;;;;;;5032167;28;20029;-52
2022/11/07 06:20:17;;;;;;;3.75;1.33;;;20.10;48.90;;;;;;5048094;28;20033;-54
2022/11/07 06:22:43;;;;;;;3.08;0.93;;;20.20;49.00;;;;;;5049724;28;20047;-50
2022/11/07 06:25:09;;;;;;;3.50;1.23;;;20.10;48.90;;;;;;5046683;28;20092;-54
2022/11/07 06:27:35;;;;;;;2.70;1.02;;;20.20;49.00;;;;;;5049510;28;20410;-53
2022/11/07 06:30:00;;;;;;;2.75;0.90;;;20.20;49.00;;;;;;5051098;28;20031;-53
2022/11/07 06:32:27;;;;;;;3.22;1.30;;;20.10;49.00;;;;;;5047720;28;20255;-54
2022/11/07 06:34:53;;;;;;;2.80;1.05;;;20.10;49.00;;;;;;5048341;28;20029;-53
2022/11/07 06:37:19;;;;;;;3.05;1.10;;;20.20;49.00;;;;;;5051553;28;20039;-50
2022/11/07 06:39:45;;;;;;;2.97;1.15;;;20.20;49.00;;;;;;5048960;28;20160;-56
2022/11/07 06:42:10;;;;;;;4.25;1.17;;;20.10;49.00;;;;;;5049397;28;20029;-57
2022/11/07 06:44:36;;;;;;;3.53;1.33;;;20.20;49.10;;;;;;5048248;28;20043;-56
2022/11/07 06:47:02;;;;;;;2.78;0.77;;;20.10;49.00;;;;;;5049110;28;20317;-55
2022/11/07 06:49:28;;;;;;;2.67;1.08;;;20.10;49.00;;;;;;5047609;28;20100;-56
2022/11/07 06:51:54;;;;;;;4.00;1.00;;;20.10;49.00;;;;;;5047199;28;20041;-50
2022/11/07 06:54:20;;;;;;;4.22;1.10;;;20.20;49.10;;;;;;5049415;28;20040;-53
2022/11/07 06:56:45;;;;;;;3.33;1.20;;;20.10;49.10;;;;;;5050679;28;20053;-51
2022/11/07 06:59:11;;;;;;;2.75;1.02;;;20.10;49.10;;;;;;5049923;28;20025;-54
2022/11/07 07:01:37;;;;;;;3.58;1.13;;;20.10;49.10;;;;;;5041113;28;20120;-52
2022/11/07 07:04:04;;;;;;;3.67;1.42;;;20.10;49.10;;;;;;5021668;28;20025;-55
2022/11/07 07:06:30;;;;;;;4.15;1.33;;;20.10;49.10;;;;;;5048684;28;20064;-54
2022/11/07 07:08:56;;;;;;;4.55;1.13;;;20.10;49.10;;;;;;5043465;28;20052;-57
2022/11/07 07:11:22;;;;;;;2.45;1.15;;;20.10;49.10;;;;;;5047379;28;20053;-54
2022/11/07 07:13:49;;;;;;;2.88;1.10;;;20.10;49.20;;;;;;5036280;28;20456;-57
2022/11/07 07:16:15;;;;;;;2.35;0.82;;;20.10;49.20;;;;;;5043196;28;20029;-53
2022/11/07 07:18:41;;;;;;;3.83;1.42;;;20.10;49.20;;;;;;5052293;28;20112;-58
2022/11/07 07:21:11;;;;;;;4.07;1.83;;;20.10;49.20;;;;;;5050234;28;20040;-56
2022/11/07 07:23:38;;;;;;;3.85;1.27;;;20.10;49.30;;;;;;5034529;28;20059;-59
2022/11/07 07:26:08;;;;;;;3.35;0.93;;;20.10;49.20;;;;;;5034937;28;20446;-57
2022/11/07 07:28:36;;;;;;;3.95;1.17;;;20.10;49.30;;;;;;5039151;28;20098;-56
2022/11/07 07:31:07;;;;;;;3.17;1.15;;;20.10;49.30;;;;;;5044589;28;20056;-58
2022/11/07 07:33:33;;;;;;;3.35;1.10;;;20.10;49.30;;;;;;5045993;28;20033;-57
2022/11/07 07:35:59;;;;;;;3.47;1.27;;;20.10;49.30;;;;;;5041407;28;20041;-56
2022/11/07 07:38:24;;;;;;;4.20;1.20;;;20.10;49.30;;;;;;5033308;28;20041;-60
2022/11/07 07:40:50;;;;;;;3.03;0.77;;;20.10;49.30;;;;;;5042145;28;20028;-58
2022/11/07 07:43:16;;;;;;;2.97;0.90;;;20.10;49.30;;;;;;5037991;28;20037;-57
2022/11/07 07:45:42;;;;;;;3.35;1.25;;;20.10;49.30;;;;;;5042818;28;20040;-58
2022/11/07 07:48:08;;;;;;;2.47;1.00;;;20.10;49.40;;;;;;5053905;28;20021;-58
2022/11/07 07:50:34;;;;;;;2.30;1.00;;;20.10;49.40;;;;;;5042391;28;20334;-56
2022/11/07 07:53:00;;;;;;;6.28;1.23;;;20.10;49.40;;;;;;5034466;28;20037;-57
2022/11/07 07:55:26;;;;;;;3.70;1.25;;;20.10;49.40;;;;;;5043841;28;20033;-57
2022/11/07 07:57:52;;;;;;;2.67;1.10;;;20.10;49.40;;;;;;5053867;28;20032;-60
2022/11/07 08:00:18;;;;;;;4.03;1.38;;;20.10;49.50;;;;;;5050625;28;20029;-58
2022/11/07 08:02:43;;;;;;;3.20;0.90;;;20.10;49.60;;;;;;5049553;28;20021;-57
2022/11/07 08:05:12;;;;;;;2.90;0.95;;;20.10;49.60;;;;;;5050343;28;20539;-58
2022/11/07 08:07:48;;;;;;;2.70;1.13;;;20.10;49.60;;;;;;5049539;28;20029;-58
2022/11/07 08:10:14;;;;;;;2.38;1.10;;;20.10;49.60;;;;;;5050239;28;20472;-60
2022/11/07 08:12:48;;;;;;;3.08;1.15;;;20.10;49.70;;;;;;5055854;28;20041;-58
2022/11/07 08:15:15;;;;;;;2.83;1.25;;;20.10;49.70;;;;;;5041222;28;20501;-57
2022/11/07 08:17:41;;;;;;;4.05;1.20;;;20.20;49.90;;;;;;5022616;28;20030;-54
2022/11/07 08:20:09;;;;;;;4.82;1.48;;;20.10;50.00;;;;;;5033075;28;20032;-55
2022/11/07 08:22:36;;;;;;;5.15;1.35;;;20.20;50.10;;;;;;5044851;28;20518;-55
2022/11/07 08:25:02;;;;;;;5.28;1.38;;;20.20;50.10;;;;;;5050834;28;20060;-55
2022/11/07 08:27:28;;;;;;;5.60;1.40;;;20.20;50.10;;;;;;5036103;28;20021;-53
2022/11/07 08:29:54;;;;;;;4.75;1.40;;;20.20;50.20;;;;;;5052436;28;20017;-54
2022/11/07 08:32:19;;;;;;;5.38;1.05;;;20.20;50.90;;;;;;5050226;28;20425;-53
2022/11/07 08:34:45;;;;;;;4.15;1.23;;;20.20;50.20;;;;;;5051859;28;20037;-55
2022/11/07 08:37:11;;;;;;;4.00;1.23;;;20.20;50.20;;;;;;5050117;28;20023;-53
2022/11/07 08:39:37;;;;;;;4.50;1.30;;;20.20;50.80;;;;;;5049408;28;20452;-54
2022/11/07 08:42:03;;;;;;;4.72;1.23;;;20.20;50.30;;;;;;5028892;28;20030;-57
2022/11/07 08:44:31;;;;;;;3.15;1.10;;;20.20;50.80;;;;;;5052034;28;20044;-56
2022/11/07 08:46:57;;;;;;;4.30;1.40;;;20.30;50.20;;;;;;5048554;28;20489;-57
2022/11/07 08:49:23;;;;;;;4.18;1.67;;;20.20;50.10;;;;;;5045569;28;20036;-55
2022/11/07 08:51:49;;;;;;;4.72;1.30;;;20.20;50.20;;;;;;5043438;28;20041;-58
2022/11/07 08:54:14;;;;;;;4.03;1.10;;;20.20;50.20;;;;;;5047069;28;20025;-52
2022/11/07 08:56:40;;;;;;;3.88;1.35;;;20.20;50.80;;;;;;5046992;28;20043;-54
2022/11/07 08:59:08;;;;;;;4.40;1.27;;;20.30;50.20;;;;;;5047297;28;20040;-50
2022/11/07 09:01:34;;;;;;;2.65;0.90;;;20.30;50.20;;;;;;5046479;28;20370;-52
2022/11/07 09:04:06;;;;;;;4.03;1.10;;;20.30;50.20;;;;;;5049015;28;20043;-53
2022/11/07 09:06:32;;;;;;;2.70;1.10;;;20.30;50.20;;;;;;5046508;28;20432;-55
2022/11/07 09:09:01;;;;;;;4.30;1.00;;;20.30;50.20;;;;;;5046977;28;20029;-53
2022/11/07 09:11:27;;;;;;;3.92;0.93;;;20.30;50.20;;;;;;5049596;28;20041;-53
2022/11/07 09:13:54;;;;;;;3.88;1.02;;;20.30;50.20;;;;;;5048699;28;20045;-56
2022/11/07 09:16:20;;;;;;;2.80;1.23;;;20.30;50.20;;;;;;5052658;28;20021;-56
2022/11/07 09:18:48;;;;;;;3.25;0.88;;;20.30;50.10;;;;;;5049904;28;20395;-55
2022/11/07 09:21:14;;;;;;;4.88;1.33;;;20.30;50.20;;;;;;5047096;28;20084;-53
2022/11/07 09:23:40;;;;;;;3.97;1.30;;;20.30;50.20;;;;;;5036946;28;20030;-59
2022/11/07 09:26:06;;;;;;;4.13;1.73;;;20.30;50.40;;;;;;5039947;28;20044;-56
2022/11/07 09:28:33;;;;;;;3.65;1.30;;;20.30;50.50;;;;;;5048599;28;20052;-57
2022/11/07 09:31:01;;;;;;;2.75;0.82;;;20.30;50.50;;;;;;5055204;28;20036;-54
2022/11/07 09:33:27;;;;;;;5.32;1.20;;;20.40;50.50;;;;;;5056718;28;20068;-53
2022/11/07 09:35:53;;;;;;;4.22;1.17;;;20.30;50.40;;;;;;5038766;28;20025;-52
2022/11/07 09:38:20;;;;;;;4.35;1.30;;;20.30;50.40;;;;;;5056371;28;20441;-54
2022/11/07 09:41:00;;;;;;;4.82;1.63;;;20.30;50.40;;;;;;5049333;28;20025;-55
2022/11/07 09:43:45;;;;;;;4.55;1.17;;;20.40;50.40;;;;;;5053325;28;20056;-55
2022/11/07 09:46:13;;;;;;;3.38;1.38;;;20.40;50.40;;;;;;5056422;28;20410;-54
2022/11/07 09:48:46;;;;;;;3.90;1.52;;;20.40;50.40;;;;;;5056697;28;20087;-52
2022/11/07 09:51:35;;;;;;;3.10;1.15;;;20.40;50.40;;;;;;5056672;28;20041;-51
2022/11/07 09:54:06;;;;;;;4.35;1.33;;;20.40;50.30;;;;;;5043121;28;20116;-56
2022/11/07 09:56:33;;;;;;;3.95;1.20;;;20.40;50.30;;;;;;5037126;28;20041;-52
2022/11/07 09:59:05;;;;;;;3.53;1.08;;;20.40;50.30;;;;;;5036273;28;20033;-56
2022/11/07 10:01:31;;;;;;;4.18;1.35;;;20.30;50.30;;;;;;5036733;28;20021;-53
2022/11/07 10:03:58;;;;;;;4.75;1.45;;;20.40;50.30;;;;;;5036405;28;20388;-56
2022/11/07 10:06:48;;;;;;;2.00;0.90;;;20.40;50.30;;;;;;5035802;28;20348;-55
2022/11/07 10:09:25;;;;;;;3.47;0.98;;;20.30;50.20;;;;;;5036438;28;20030;-50
2022/11/07 10:12:01;;;;;;;4.20;1.48;;;20.40;50.30;;;;;;5035921;28;20228;-56
2022/11/07 10:15:02;;;;;;;5.10;1.27;;;20.40;50.30;;;;;;5048993;28;20028;-51
2022/11/07 10:18:06;;;;;;;4.93;1.30;;;20.40;50.30;;;;;;5026741;28;20384;-56
2022/11/07 10:20:49;;;;;;;4.05;1.20;;;20.40;50.30;;;;;;4974959;28;20249;-53
2022/11/07 10:23:34;;;;;;;3.35;1.08;;;20.30;50.30;;;;;;5045099;28;20485;-53
2022/11/07 10:26:07;;;;;;;4.22;1.40;;;20.40;50.40;;;;;;5056411;28;20074;-51
2022/11/07 10:28:44;;;;;;;2.75;1.17;;;20.40;50.40;;;;;;5038107;28;20456;-55
2022/11/07 10:31:12;;;;;;;4.57;1.40;;;20.40;50.40;;;;;;5055979;28;20444;-55
2022/11/07 10:34:01;;;;;;;4.32;1.35;;;20.40;50.40;;;;;;5053464;28;20025;-53
2022/11/07 10:36:29;;;;;;;2.95;0.98;;;20.40;50.40;;;;;;5055160;28;20029;-52
2022/11/07 10:38:55;;;;;;;4.63;1.15;;;20.40;50.50;;;;;;5055416;28;20036;-50
2022/11/07 10:41:26;;;;;;;3.28;0.98;;;20.40;50.50;;;;;;5055732;28;20024;-52
2022/11/07 10:43:57;;;;;;;2.75;1.10;;;20.40;50.50;;;;;;5055588;28;20032;-54
2022/11/07 10:46:36;;;;;;;3.85;1.20;;;20.40;50.50;;;;;;5056151;28;20341;-54
2022/11/07 10:49:02;;;;;;;4.28;1.33;;;20.40;50.50;;;;;;5046548;28;20025;-53
2022/11/07 10:51:39;;;;;;;2.95;1.02;;;20.40;50.60;;;;;;5035316;28;20049;-56
2022/11/07 10:54:06;;;;;;;2.75;1.20;;;20.40;50.60;;;;;;5035100;28;20048;-49
2022/11/07 10:56:48;;;;;;;3.33;1.27;;;20.30;50.50;;;;;;5034718;28;20471;-54
2022/11/07 10:59:24;;;;;;;2.97;1.33;;;20.40;50.60;;;;;;5036249;28;20029;-51
2022/11/07 11:01:53;;;;;;;5.05;1.23;;;20.40;50.60;;;;;;5035599;28;20079;-51
2022/11/07 11:04:29;;;;;;;2.25;0.93;;;20.40;50.60;;;;;;5034984;28;20033;-54
2022/11/07 11:07:00;;;;;;;2.42;1.00;;;20.40;50.60;;;;;;5034732;28;20052;-56
2022/11/07 11:09:34;;;;;;;2.78;1.13;;;20.40;50.60;;;;;;5032851;28;20029;-55
2022/11/07 11:12:12;;;;;;;3.50;1.35;;;20.40;50.60;;;;;;5033392;28;20050;-55
2022/11/07 11:14:38;;;;;;;5.03;1.20;;;20.40;50.60;;;;;;5034840;28;20033;-51
2022/11/07 11:17:05;;;;;;;4.57;1.10;;;20.40;50.60;;;;;;5035765;28;20078;-53
2022/11/07 11:19:47;;;;;;;3.25;0.90;;;20.40;50.60;;;;;;5051517;28;20021;-56
2022/11/07 11:22:19;;;;;;;3.38;1.02;;;20.40;50.60;;;;;;5038478;28;20137;-53
2022/11/07 11:24:45;;;;;;;2.72;0.85;;;20.40;50.50;;;;;;5031375;28;20033;-52
2022/11/07 11:27:17;;;;;;;5.93;1.10;;;20.40;50.50;;;;;;5045854;28;20029;-53
2022/11/07 11:30:01;;;;;;;4.63;1.08;;;20.40;50.50;;;;;;5037207;28;20029;-52
2022/11/07 11:32:47;;;;;;;4.82;1.25;;;20.40;50.50;;;;;;5040071;28;20448;-54
2022/11/07 11:35:37;;;;;;;3.50;1.05;;;20.40;50.50;;;;;;5034469;28;20082;-56
2022/11/07 11:38:27;;;;;;;2.78;0.93;;;20.40;50.50;;;;;;5037391;28;20063;-54
2022/11/07 11:41:15;;;;;;;4.95;1.30;;;20.40;50.50;;;;;;5044183;28;20086;-54
2022/11/07 11:43:48;;;;;;;3.53;1.20;;;20.40;50.50;;;;;;5049277;28;20017;-51
2022/11/07 11:46:31;;;;;;;2.92;1.08;;;20.40;50.50;;;;;;5038399;28;20086;-53
2022/11/07 11:49:04;;;;;;;4.05;1.23;;;20.40;50.60;;;;;;5054542;28;20041;-53
2022/11/07 11:51:42;;;;;;;4.55;1.52;;;20.40;51.20;;;;;;5054503;28;20123;-54
2022/11/07 11:54:16;;;;;;;3.63;0.98;;;20.40;51.20;;;;;;5054368;28;20029;-55
2022/11/07 11:56:55;;;;;;;2.58;0.80;;;20.40;50.60;;;;;;5054708;28;20094;-49
2022/11/07 11:59:40;;;;;;;5.35;1.20;;;20.50;50.60;;;;;;5051208;28;20033;-55
2022/11/07 12:02:43;;;;;;;3.47;1.27;;;20.50;50.50;;;;;;5041613;28;20391;-53
2022/11/07 12:05:18;;;;;;;3.63;1.02;;;20.60;50.50;;;;;;5053623;28;20333;-57
2022/11/07 12:07:58;;;;;;;3.00;0.95;;;20.60;50.40;;;;;;5033921;28;20028;-54
2022/11/07 12:10:36;;;;;;;2.92;1.00;;;20.60;50.30;;;;;;5051330;28;20036;-53
2022/11/07 12:13:44;;;;;;;4.60;0.80;;;20.70;50.20;;;;;;5005985;28;20057;-53
2022/11/07 12:16:18;;;;;;;4.45;1.13;;;20.80;50.20;;;;;;4972851;28;20446;-54
2022/11/07 12:18:48;;;;;;;2.08;0.90;;;20.80;50.00;;;;;;5012027;28;20571;-55
2022/11/07 12:21:34;;;;;;;3.47;1.25;;;20.90;50.00;;;;;;5004191;28;20022;-52
2022/11/07 12:24:15;;;;;;;2.10;0.82;;;21.00;49.90;;;;;;5003666;28;20067;-51
2022/11/07 12:26:56;;;;;;;3.28;1.15;;;21.10;49.80;;;;;;5012065;28;20449;-51
2022/11/07 12:29:52;;;;;;;2.60;0.90;;;21.10;49.70;;;;;;5004106;28;20113;-55
2022/11/07 12:32:29;;;;;;;4.72;1.30;;;21.20;49.60;;;;;;5004964;28;20065;-54
2022/11/07 12:35:07;;;;;;;3.33;0.95;;;21.30;49.50;;;;;;5007526;28;20069;-56
2022/11/07 12:37:51;;;;;;;2.83;1.17;;;21.30;49.40;;;;;;5008754;28;20030;-56
2022/11/07 12:40:53;;;;;;;4.43;1.10;;;21.40;49.40;;;;;;5009664;28;20025;-55
2022/11/07 12:43:54;;;;;;;2.22;0.95;;;21.50;49.30;;;;;;5009056;28;20046;-53
2022/11/07 12:46:49;;;;;;;2.28;0.80;;;21.50;49.10;;;;;;5014743;28;20022;-52
2022/11/07 12:49:39;;;;;;;3.40;1.20;;;21.60;49.00;;;;;;5003276;28;20038;-56
2022/11/07 12:52:16;;;;;;;2.42;0.90;;;21.70;48.90;;;;;;5014586;28;20303;-56
2022/11/07 12:54:44;;;;;;;2.90;0.90;;;21.70;48.80;;;;;;5015183;28;20056;-53
2022/11/07 12:57:19;;;;;;;3.95;1.00;;;21.80;48.80;;;;;;4997496;28;20442;-53
2022/11/07 12:59:56;;;;;;;3.63;1.08;;;21.80;48.60;;;;;;5010661;28;20044;-53
2022/11/07 13:02:52;;;;;;;3.72;1.00;;;21.90;48.60;;;;;;5011257;28;20057;-56
2022/11/07 13:05:30;;;;;;;2.20;0.90;;;21.90;48.50;;;;;;5007417;28;20161;-58
2022/11/07 13:08:24;;;;;;;2.78;1.00;;;22.00;48.40;;;;;;5009275;28;20030;-57
2022/11/07 13:11:21;;;;;;;4.32;1.13;;;22.00;48.40;;;;;;5007412;28;20042;-58
2022/11/07 13:14:13;;;;;;;3.53;1.20;;;22.00;48.30;;;;;;5023703;28;20123;-59
2022/11/07 13:16:57;;;;;;;4.45;1.45;;;22.10;48.20;;;;;;5010117;28;20033;-55